Time;durP1;ratioP1;P1;durP2;ratioP2;P2;SDS_P1;SDS_P2;PMS_P1;PMS_P2;Temp;Humidity;BMP_temperature;BMP_pressure;BME280_temperature;BME280_humidity;BME280_pressure;Samples;Min_cycle;Max_cycle;Signal;HPM_P1;HPM_P2
2022/07/11 00:00:52;;;;;;;3.63;1.23;;;22.90;56.30;;;;;;6103695;23;86870;-86
2022/07/11 00:03:18;;;;;;;1.48;1.17;;;22.90;56.30;;;;;;6103883;23;87889;-86
2022/07/11 00:05:43;;;;;;;2.72;1.40;;;22.90;56.40;;;;;;6101949;23;90187;-86
2022/07/11 00:08:09;;;;;;;1.20;1.10;;;22.90;56.30;;;;;;6101955;23;87441;-87
2022/07/11 00:10:35;;;;;;;1.60;1.33;;;22.90;56.30;;;;;;6076444;23;89659;-85
2022/07/11 00:13:00;;;;;;;1.85;1.23;;;22.90;56.40;;;;;;6102147;23;88072;-85
2022/07/11 00:15:26;;;;;;;1.83;1.40;;;22.90;56.40;;;;;;6103416;23;87481;-85
2022/07/11 00:17:52;;;;;;;1.58;1.30;;;22.80;56.30;;;;;;6103671;23;86815;-86
2022/07/11 00:20:17;;;;;;;1.20;1.10;;;22.90;56.40;;;;;;6076309;23;87940;-86
2022/07/11 00:22:43;;;;;;;1.98;1.15;;;22.90;56.40;;;;;;6102483;23;87680;-86
2022/07/11 00:25:09;;;;;;;1.73;1.20;;;22.90;56.40;;;;;;6102977;23;87357;-87
2022/07/11 00:27:34;;;;;;;1.92;1.30;;;22.90;56.40;;;;;;6103961;23;86825;-86
2022/07/11 00:30:00;;;;;;;2.63;1.15;;;22.90;56.40;;;;;;6103557;23;86766;-86
2022/07/11 00:32:26;;;;;;;2.08;1.63;;;22.90;56.50;;;;;;6103668;23;88059;-85
2022/07/11 00:34:51;;;;;;;1.30;1.20;;;22.90;56.40;;;;;;6103517;23;86888;-86
2022/07/11 00:37:24;;;;;;;1.20;1.10;;;22.90;56.40;;;;;;6102859;23;87859;-86
2022/07/11 00:39:50;;;;;;;1.65;1.30;;;22.90;56.40;;;;;;6103369;23;87246;-86
2022/07/11 00:42:17;;;;;;;1.65;1.40;;;22.80;56.30;;;;;;6076266;23;90689;-87
2022/07/11 00:44:42;;;;;;;1.60;1.38;;;22.90;56.40;;;;;;6103164;23;87795;-86
2022/07/11 00:47:08;;;;;;;1.73;1.30;;;22.80;56.40;;;;;;6103965;23;87173;-85
2022/07/11 00:49:33;;;;;;;1.75;1.48;;;22.80;56.30;;;;;;6102574;23;86800;-86
2022/07/11 00:51:59;;;;;;;1.20;1.10;;;22.80;56.40;;;;;;6103296;23;88120;-85
2022/07/11 00:54:27;;;;;;;1.50;1.23;;;22.80;56.30;;;;;;6102927;23;87314;-87
2022/07/11 00:56:53;;;;;;;1.67;1.30;;;22.80;56.40;;;;;;6077063;23;87301;-86
2022/07/11 00:59:20;;;;;;;1.73;1.38;;;22.80;56.30;;;;;;6103410;23;87343;-86
2022/07/11 01:01:46;;;;;;;1.73;1.20;;;22.80;56.50;;;;;;6101403;23;88534;-87
2022/07/11 01:04:11;;;;;;;1.38;1.27;;;22.80;56.40;;;;;;6076361;23;88705;-86
2022/07/11 01:06:37;;;;;;;1.25;1.15;;;22.80;56.50;;;;;;6103892;23;87182;-87
2022/07/11 01:09:03;;;;;;;1.30;1.20;;;22.80;56.40;;;;;;6102816;23;87124;-86
2022/07/11 01:11:28;;;;;;;1.40;1.30;;;22.80;56.40;;;;;;6102124;23;86909;-86
2022/07/11 01:13:54;;;;;;;1.20;1.00;;;22.80;56.40;;;;;;6102819;23;87462;-86
2022/07/11 01:16:22;;;;;;;1.30;1.20;;;22.80;56.40;;;;;;6103321;23;87423;-86
2022/07/11 01:18:53;;;;;;;1.60;1.25;;;22.80;56.50;;;;;;6076851;23;87409;-85
2022/07/11 01:21:24;;;;;;;1.50;1.40;;;22.80;56.70;;;;;;6076212;23;91209;-87
2022/07/11 01:23:52;;;;;;;1.85;1.45;;;22.80;56.50;;;;;;6102068;23;87691;-86
2022/07/11 01:26:20;;;;;;;1.83;1.50;;;22.80;56.50;;;;;;6102223;23;88158;-85
2022/07/11 01:28:46;;;;;;;1.90;1.10;;;22.80;56.60;;;;;;6102878;23;86896;-87
2022/07/11 01:31:12;;;;;;;1.38;1.27;;;22.80;56.50;;;;;;6100065;23;90054;-86
2022/07/11 01:33:41;;;;;;;1.35;1.20;;;22.80;56.80;;;;;;6101643;23;87255;-86
2022/07/11 01:36:07;;;;;;;1.83;1.30;;;22.80;56.50;;;;;;6102330;23;87221;-86
2022/07/11 01:38:33;;;;;;;1.38;1.25;;;22.80;56.60;;;;;;6102426;23;87012;-87
2022/07/11 01:40:59;;;;;;;1.50;1.40;;;22.80;56.50;;;;;;6102375;23;86955;-87
2022/07/11 01:43:25;;;;;;;1.63;1.40;;;22.80;56.60;;;;;;6103200;23;87916;-87
2022/07/11 01:45:54;;;;;;;1.58;1.48;;;22.80;56.70;;;;;;6100767;23;86941;-87
2022/07/11 01:48:20;;;;;;;1.77;1.30;;;22.80;56.50;;;;;;6103238;23;86889;-86
2022/07/11 01:50:47;;;;;;;1.85;1.40;;;22.80;56.60;;;;;;6103085;23;88219;-87
2022/07/11 01:53:13;;;;;;;2.22;1.30;;;22.80;56.70;;;;;;6103658;23;87563;-85
2022/07/11 01:55:47;;;;;;;1.30;1.20;;;22.80;56.70;;;;;;6077763;23;87378;-86
2022/07/11 01:58:12;;;;;;;1.38;1.20;;;22.80;56.70;;;;;;6103897;23;87075;-86
2022/07/11 02:00:38;;;;;;;1.17;1.08;;;22.80;56.70;;;;;;6077057;23;89410;-87
2022/07/11 02:03:04;;;;;;;1.67;1.30;;;22.80;56.80;;;;;;6104536;23;87436;-86
2022/07/11 02:05:30;;;;;;;1.80;1.52;;;22.80;56.80;;;;;;6104116;23;87340;-87
2022/07/11 02:08:14;;;;;;;1.65;1.20;;;22.80;56.80;;;;;;6104219;23;86032;-87
2022/07/11 02:10:46;;;;;;;1.35;1.25;;;22.80;56.80;;;;;;6103262;23;88258;-86
2022/07/11 02:13:13;;;;;;;1.60;1.38;;;22.80;56.90;;;;;;6076689;23;89176;-85
2022/07/11 02:15:40;;;;;;;1.80;1.30;;;22.80;56.80;;;;;;6103830;23;88277;-87
2022/07/11 02:18:06;;;;;;;1.63;1.30;;;22.80;57.10;;;;;;6104054;23;87154;-86
2022/07/11 02:20:32;;;;;;;1.60;1.45;;;22.80;56.90;;;;;;6101967;23;89251;-87
2022/07/11 02:23:00;;;;;;;1.40;1.30;;;22.80;57.00;;;;;;6103834;23;87715;-87
2022/07/11 02:25:26;;;;;;;1.58;1.48;;;22.80;57.50;;;;;;6104171;23;87276;-87
2022/07/11 02:27:52;;;;;;;2.10;1.60;;;22.80;56.80;;;;;;6103714;23;87265;-86
2022/07/11 02:30:17;;;;;;;2.17;1.55;;;22.70;56.70;;;;;;6103755;23;86908;-87
2022/07/11 02:32:43;;;;;;;1.35;1.25;;;22.70;56.80;;;;;;6104753;23;87852;-86
2022/07/11 02:35:09;;;;;;;1.88;1.25;;;22.70;56.90;;;;;;6104209;23;87062;-84
2022/07/11 02:37:35;;;;;;;1.42;1.33;;;22.80;56.90;;;;;;6077406;23;88585;-87
2022/07/11 02:40:01;;;;;;;1.40;1.30;;;22.70;56.90;;;;;;6102871;23;88035;-87
2022/07/11 02:42:26;;;;;;;1.63;1.50;;;22.70;57.30;;;;;;6100776;23;91383;-87
2022/07/11 02:44:52;;;;;;;1.27;1.17;;;22.80;57.30;;;;;;6103676;23;87767;-86
2022/07/11 02:47:18;;;;;;;1.38;1.27;;;22.80;57.30;;;;;;6103615;23;87102;-87
2022/07/11 02:49:43;;;;;;;1.35;1.25;;;22.70;57.20;;;;;;6103703;23;86890;-87
2022/07/11 02:52:10;;;;;;;1.10;1.00;;;22.80;57.40;;;;;;6100848;23;89278;-86
2022/07/11 02:54:36;;;;;;;1.70;1.60;;;22.70;57.40;;;;;;6077220;23;87402;-86
2022/07/11 02:57:02;;;;;;;1.30;1.20;;;22.70;58.10;;;;;;6103298;23;87160;-86
2022/07/11 02:59:27;;;;;;;1.33;1.23;;;22.80;57.40;;;;;;6075779;23;91272;-86
2022/07/11 03:01:54;;;;;;;1.30;1.20;;;22.70;57.30;;;;;;6102976;23;86919;-86
2022/07/11 03:04:19;;;;;;;1.38;1.20;;;22.70;57.40;;;;;;6102708;23;88283;-86
2022/07/11 03:06:45;;;;;;;1.55;1.20;;;22.70;57.50;;;;;;6103962;23;87367;-87
2022/07/11 03:09:11;;;;;;;1.80;1.40;;;22.70;57.40;;;;;;6103450;23;87896;-86
2022/07/11 03:11:36;;;;;;;1.40;1.30;;;22.70;57.50;;;;;;6102682;23;87944;-86
2022/07/11 03:14:12;;;;;;;1.20;1.10;;;22.70;57.10;;;;;;6103284;23;87658;-86
2022/07/11 03:16:38;;;;;;;1.40;1.30;;;22.70;57.10;;;;;;6102905;23;87027;-86
2022/07/11 03:19:04;;;;;;;1.50;1.13;;;22.70;57.10;;;;;;6103177;23;87518;-86
2022/07/11 03:21:29;;;;;;;1.25;1.15;;;22.70;57.10;;;;;;6104824;23;86612;-85
2022/07/11 03:23:55;;;;;;;1.70;1.48;;;22.70;57.00;;;;;;6103905;23;86753;-85
2022/07/11 03:26:20;;;;;;;1.98;1.25;;;22.70;57.10;;;;;;6104440;23;86775;-85
2022/07/11 03:28:46;;;;;;;0.88;0.88;;;22.70;57.10;;;;;;6102752;23;88493;-86
2022/07/11 03:31:11;;;;;;;1.50;1.40;;;22.70;57.00;;;;;;6103450;23;87124;-84
2022/07/11 03:33:37;;;;;;;1.75;1.45;;;22.70;57.00;;;;;;6103286;23;87267;-87
2022/07/11 03:36:03;;;;;;;1.50;1.30;;;22.70;57.00;;;;;;6101614;23;88700;-86
2022/07/11 03:38:29;;;;;;;1.33;1.23;;;22.70;56.90;;;;;;6103678;23;87058;-85
2022/07/11 03:40:56;;;;;;;1.30;1.20;;;22.70;57.10;;;;;;6103138;23;87829;-86
2022/07/11 03:43:22;;;;;;;1.65;1.33;;;22.70;57.10;;;;;;6077827;23;86852;-86
2022/07/11 03:45:48;;;;;;;1.20;1.10;;;22.70;57.20;;;;;;6077765;23;89201;-86
2022/07/11 03:48:14;;;;;;;1.40;1.30;;;22.70;57.10;;;;;;6076655;23;90505;-86
2022/07/11 03:50:39;;;;;;;1.40;1.30;;;22.60;56.90;;;;;;6103003;23;87564;-87
2022/07/11 03:53:05;;;;;;;1.50;1.40;;;22.70;57.00;;;;;;6076544;23;87895;-85
2022/07/11 03:55:31;;;;;;;1.40;1.30;;;22.70;57.10;;;;;;6103392;23;86953;-88
2022/07/11 03:57:57;;;;;;;1.52;1.42;;;22.70;57.10;;;;;;6103612;23;88478;-87
2022/07/11 04:00:26;;;;;;;1.50;1.40;;;22.60;57.10;;;;;;6102327;23;87648;-85
2022/07/11 04:02:57;;;;;;;1.43;1.33;;;22.70;57.20;;;;;;6103745;23;86749;-86
2022/07/11 04:05:23;;;;;;;1.30;1.20;;;22.70;57.30;;;;;;6100745;23;89566;-86
2022/07/11 04:07:49;;;;;;;1.20;1.10;;;22.60;57.10;;;;;;6103573;23;88312;-86
2022/07/11 04:10:17;;;;;;;1.35;1.23;;;22.70;57.10;;;;;;6102122;23;87634;-86
2022/07/11 04:12:43;;;;;;;1.38;1.10;;;22.60;57.10;;;;;;6073703;23;87295;-86
2022/07/11 04:15:09;;;;;;;1.45;1.30;;;22.70;57.20;;;;;;6099959;23;86782;-86
2022/07/11 04:17:35;;;;;;;1.38;1.27;;;22.60;57.10;;;;;;6099861;23;89627;-85
2022/07/11 04:20:01;;;;;;;1.50;1.17;;;22.70;57.10;;;;;;6099843;23;88221;-86
2022/07/11 04:22:26;;;;;;;1.23;1.10;;;22.70;57.20;;;;;;6100970;23;86985;-85
2022/07/11 04:24:52;;;;;;;1.30;1.17;;;22.60;57.10;;;;;;6100600;23;87484;-85
2022/07/11 04:27:17;;;;;;;1.48;1.30;;;22.60;57.20;;;;;;6098033;23;90040;-86
2022/07/11 04:29:43;;;;;;;1.60;1.50;;;22.60;57.10;;;;;;6099668;23;89019;-86
2022/07/11 04:32:09;;;;;;;1.40;1.30;;;22.60;57.00;;;;;;6100727;23;86846;-83
2022/07/11 04:34:34;;;;;;;1.30;1.20;;;22.60;57.10;;;;;;6100885;23;86132;-84
2022/07/11 04:37:00;;;;;;;1.60;1.50;;;22.70;57.20;;;;;;6100523;23;88099;-85
2022/07/11 04:39:25;;;;;;;1.90;1.20;;;22.60;57.20;;;;;;6098411;23;90224;-85
2022/07/11 04:41:52;;;;;;;1.60;1.40;;;22.60;57.10;;;;;;6100080;23;87683;-85
2022/07/11 04:44:17;;;;;;;1.33;1.23;;;22.60;57.20;;;;;;6073890;23;90091;-85
2022/07/11 04:46:43;;;;;;;1.45;1.27;;;22.60;57.20;;;;;;6074378;23;90492;-85
2022/07/11 04:49:10;;;;;;;1.88;1.40;;;22.70;57.20;;;;;;6100008;23;87560;-85
2022/07/11 04:51:39;;;;;;;1.65;1.20;;;22.60;57.20;;;;;;6100439;23;86902;-86
2022/07/11 04:54:04;;;;;;;1.00;1.00;;;22.70;57.20;;;;;;6073958;23;87846;-85
2022/07/11 04:56:30;;;;;;;1.52;1.40;;;22.60;57.20;;;;;;6100061;23;86963;-87
2022/07/11 04:58:55;;;;;;;1.45;1.35;;;22.60;57.20;;;;;;6102314;23;87382;-86
2022/07/11 05:01:21;;;;;;;1.58;1.48;;;22.60;57.20;;;;;;6098996;23;87240;-86
2022/07/11 05:03:47;;;;;;;1.45;1.23;;;22.60;57.20;;;;;;6101895;23;86925;-86
2022/07/11 05:06:12;;;;;;;1.45;1.20;;;22.70;57.20;;;;;;6102065;23;88825;-86
2022/07/11 05:08:38;;;;;;;1.33;1.23;;;22.70;57.30;;;;;;6075612;23;90951;-85
2022/07/11 05:11:04;;;;;;;1.20;1.10;;;22.60;57.20;;;;;;6099952;23;87232;-86
2022/07/11 05:13:30;;;;;;;1.58;1.15;;;22.60;57.20;;;;;;6075377;23;89092;-86
2022/07/11 05:15:56;;;;;;;1.40;1.30;;;22.70;57.30;;;;;;6102011;23;88169;-85
2022/07/11 05:18:22;;;;;;;1.50;1.40;;;22.70;57.30;;;;;;6102671;23;87372;-85
2022/07/11 05:20:48;;;;;;;1.27;1.10;;;22.70;57.20;;;;;;6102198;23;86904;-86
2022/07/11 05:23:14;;;;;;;1.45;1.35;;;22.70;57.30;;;;;;6074794;23;89097;-85
2022/07/11 05:25:40;;;;;;;1.45;1.35;;;22.70;57.30;;;;;;6102164;23;86924;-86
2022/07/11 05:28:06;;;;;;;1.27;1.17;;;22.70;57.40;;;;;;6075112;23;89158;-85
2022/07/11 05:30:32;;;;;;;1.20;1.10;;;22.70;57.30;;;;;;6102405;23;88175;-86
2022/07/11 05:32:58;;;;;;;1.65;1.00;;;22.60;57.20;;;;;;6102406;23;87222;-85
2022/07/11 05:35:25;;;;;;;1.52;1.33;;;22.60;57.30;;;;;;6102384;23;88158;-85
2022/07/11 05:37:50;;;;;;;1.55;1.30;;;22.60;57.40;;;;;;6101228;23;87730;-85
2022/07/11 05:40:18;;;;;;;1.27;1.17;;;22.60;57.40;;;;;;6103245;23;87898;-86
2022/07/11 05:42:44;;;;;;;1.85;1.40;;;22.70;57.50;;;;;;6075886;23;89148;-86
2022/07/11 05:45:10;;;;;;;1.70;1.27;;;22.60;57.30;;;;;;6076241;23;90297;-86
2022/07/11 05:47:36;;;;;;;1.92;1.27;;;22.70;57.40;;;;;;6102081;23;86480;-86
2022/07/11 05:50:01;;;;;;;4.80;1.98;;;22.70;57.50;;;;;;6102182;23;86906;-85
2022/07/11 05:52:27;;;;;;;3.97;1.95;;;22.70;56.80;;;;;;6101906;23;86944;-84
2022/07/11 05:54:53;;;;;;;3.97;2.47;;;22.60;57.30;;;;;;6074685;23;91098;-84
2022/07/11 05:57:18;;;;;;;7.88;2.90;;;22.60;57.60;;;;;;6075533;23;90774;-87
2022/07/11 05:59:45;;;;;;;5.50;3.08;;;22.60;57.80;;;;;;6076051;23;86781;-84
2022/07/11 06:02:11;;;;;;;6.25;3.35;;;22.60;58.00;;;;;;6074687;23;86912;-85
2022/07/11 06:04:37;;;;;;;9.45;4.22;;;22.60;58.10;;;;;;6103385;23;87221;-84
2022/07/11 06:07:03;;;;;;;9.32;3.47;;;22.60;58.40;;;;;;6075944;23;88940;-85
2022/07/11 06:09:29;;;;;;;8.48;3.97;;;22.60;58.50;;;;;;6100413;23;87427;-84
2022/07/11 06:11:55;;;;;;;7.55;4.15;;;22.60;58.50;;;;;;6102052;23;86232;-84
2022/07/11 06:14:21;;;;;;;12.80;5.00;;;22.60;58.60;;;;;;6102330;23;87938;-86
2022/07/11 06:16:46;;;;;;;7.97;5.35;;;22.60;58.80;;;;;;6101367;23;87172;-86
2022/07/11 06:19:14;;;;;;;11.82;5.53;;;22.60;59.20;;;;;;6099874;23;87949;-85
2022/07/11 06:21:40;;;;;;;13.10;5.82;;;22.50;59.60;;;;;;6102279;23;87342;-84
2022/07/11 06:24:05;;;;;;;8.57;5.30;;;22.50;59.80;;;;;;6075084;23;90187;-85
2022/07/11 06:26:36;;;;;;;7.43;5.40;;;22.40;59.80;;;;;;6100822;23;87281;-86
2022/07/11 06:29:02;;;;;;;13.43;5.70;;;22.40;60.50;;;;;;6103413;23;86997;-84
2022/07/11 06:31:28;;;;;;;12.15;5.93;;;22.40;60.60;;;;;;6074402;23;90240;-86
2022/07/11 06:33:57;;;;;;;9.85;5.65;;;22.40;60.60;;;;;;6103395;23;87421;-85
2022/07/11 06:36:26;;;;;;;11.13;5.47;;;22.30;60.90;;;;;;6077917;23;89400;-85
2022/07/11 06:38:53;;;;;;;9.65;5.22;;;22.30;60.90;;;;;;6077733;23;87362;-85
2022/07/11 06:41:19;;;;;;;10.50;5.90;;;22.30;61.00;;;;;;6076357;23;88786;-85
2022/07/11 06:43:47;;;;;;;14.55;6.20;;;22.30;61.30;;;;;;6101723;23;89930;-85
2022/07/11 06:46:14;;;;;;;12.95;6.10;;;22.30;61.50;;;;;;6098119;23;88881;-83
2022/07/11 06:48:41;;;;;;;11.32;5.95;;;22.30;61.80;;;;;;6101599;23;87232;-84
2022/07/11 06:51:06;;;;;;;10.73;5.07;;;22.30;61.50;;;;;;6075417;23;88569;-84
2022/07/11 06:53:32;;;;;;;11.88;5.80;;;22.30;61.80;;;;;;6101842;23;88193;-84
2022/07/11 06:55:58;;;;;;;7.97;5.03;;;22.30;62.00;;;;;;6101577;23;87736;-83
2022/07/11 06:58:32;;;;;;;15.30;5.63;;;22.30;62.20;;;;;;6100235;23;87203;-84
2022/07/11 07:01:03;;;;;;;39.58;9.88;;;22.30;62.30;;;;;;6100003;23;86793;-84
2022/07/11 07:03:32;;;;;;;41.63;10.40;;;22.30;62.50;;;;;;6036421;23;90647;-84
2022/07/11 07:05:58;;;;;;;20.67;8.10;;;22.30;62.60;;;;;;6072397;23;89381;-85
2022/07/11 07:08:26;;;;;;;20.52;6.88;;;22.30;62.50;;;;;;6101529;23;88051;-85
2022/07/11 07:10:52;;;;;;;17.95;6.03;;;22.30;62.60;;;;;;6100672;23;87054;-87
2022/07/11 07:13:18;;;;;;;13.90;5.65;;;22.30;62.70;;;;;;6102419;23;87504;-84
2022/07/11 07:15:44;;;;;;;17.85;4.82;;;22.30;62.80;;;;;;6102078;23;87439;-85
2022/07/11 07:18:11;;;;;;;8.77;4.32;;;22.40;62.60;;;;;;6100918;23;87324;-86
2022/07/11 07:20:37;;;;;;;17.45;4.43;;;22.40;62.60;;;;;;6075846;23;88143;-86
2022/07/11 07:23:02;;;;;;;10.75;3.45;;;22.30;62.70;;;;;;6075994;23;89823;-86
2022/07/11 07:25:28;;;;;;;11.73;3.95;;;22.40;62.60;;;;;;6100069;23;87335;-87
2022/07/11 07:27:54;;;;;;;9.95;3.50;;;22.30;62.80;;;;;;6076446;23;86892;-86
2022/07/11 07:30:19;;;;;;;9.57;3.75;;;22.30;62.80;;;;;;6076255;23;89458;-87
2022/07/11 07:32:45;;;;;;;9.43;2.95;;;22.40;63.00;;;;;;6075834;23;91429;-87
2022/07/11 07:35:10;;;;;;;10.65;3.65;;;22.30;62.90;;;;;;6076136;23;91110;-86
2022/07/11 07:37:36;;;;;;;8.90;3.30;;;22.40;63.00;;;;;;6099832;23;87285;-86
2022/07/11 07:40:12;;;;;;;8.32;2.92;;;22.40;62.60;;;;;;6075570;23;89206;-86
2022/07/11 07:42:38;;;;;;;10.73;3.20;;;22.40;62.30;;;;;;6075380;23;90579;-86
2022/07/11 07:45:03;;;;;;;13.50;3.53;;;22.40;63.20;;;;;;6074215;23;91012;-86
2022/07/11 07:47:30;;;;;;;9.40;2.95;;;22.40;62.60;;;;;;6100745;23;87148;-86
2022/07/11 07:49:56;;;;;;;8.43;3.45;;;22.40;62.80;;;;;;6100850;23;89125;-87
2022/07/11 07:52:22;;;;;;;11.27;3.72;;;22.40;63.00;;;;;;6102198;23;88292;-87
2022/07/11 07:54:47;;;;;;;9.07;3.55;;;22.40;62.90;;;;;;6075653;23;90410;-86
2022/07/11 07:57:13;;;;;;;6.68;3.67;;;22.40;62.90;;;;;;6101696;23;88249;-87
2022/07/11 07:59:39;;;;;;;26.02;5.20;;;22.40;62.90;;;;;;6049736;23;88436;-86
2022/07/11 08:02:04;;;;;;;8.38;3.75;;;22.40;62.60;;;;;;6100464;23;88009;-85
2022/07/11 08:04:30;;;;;;;10.13;2.95;;;22.30;62.70;;;;;;6102426;23;87697;-86
2022/07/11 08:06:59;;;;;;;9.70;3.20;;;22.40;63.50;;;;;;6074753;23;86865;-86
2022/07/11 08:09:25;;;;;;;13.45;3.72;;;22.40;62.80;;;;;;6102792;23;87044;-86
2022/07/11 08:11:50;;;;;;;9.07;2.90;;;22.40;62.90;;;;;;6100198;23;90703;-85
2022/07/11 08:14:16;;;;;;;9.85;3.85;;;22.30;63.10;;;;;;6102476;23;86494;-87
2022/07/11 08:16:42;;;;;;;9.27;3.70;;;22.40;63.90;;;;;;6075267;23;87946;-86
2022/07/11 08:19:18;;;;;;;9.80;3.15;;;22.40;62.90;;;;;;6101865;23;87270;-85
2022/07/11 08:21:43;;;;;;;11.65;2.97;;;22.40;62.90;;;;;;6075807;23;91120;-85
2022/07/11 08:24:09;;;;;;;11.88;3.25;;;22.40;63.00;;;;;;6075384;23;90060;-85
2022/07/11 08:26:35;;;;;;;11.32;3.10;;;22.40;63.20;;;;;;6075464;23;87611;-84
2022/07/11 08:29:02;;;;;;;10.55;3.45;;;22.40;64.10;;;;;;6075717;23;87942;-84
2022/07/11 08:31:27;;;;;;;11.43;3.85;;;22.40;63.20;;;;;;6101401;23;88107;-84
2022/07/11 08:33:53;;;;;;;10.63;3.60;;;22.40;63.10;;;;;;6100923;23;87163;-85
2022/07/11 08:36:19;;;;;;;9.20;3.42;;;22.40;63.20;;;;;;6099996;23;87507;-84
2022/07/11 08:38:46;;;;;;;7.05;3.45;;;22.40;63.10;;;;;;6075774;23;89300;-86
2022/07/11 08:41:13;;;;;;;11.63;3.30;;;22.40;63.20;;;;;;6102336;23;87888;-83
2022/07/11 08:43:41;;;;;;;11.70;3.22;;;22.40;63.10;;;;;;6102213;23;87243;-85
2022/07/11 08:46:09;;;;;;;16.10;4.10;;;22.30;62.80;;;;;;6099980;23;88372;-85
2022/07/11 08:48:38;;;;;;;7.75;2.92;;;22.30;63.00;;;;;;6075850;23;89307;-85
2022/07/11 08:51:05;;;;;;;14.00;3.23;;;22.30;63.00;;;;;;6102191;23;88446;-85
2022/07/11 08:53:33;;;;;;;8.73;3.08;;;22.30;63.30;;;;;;6075448;23;88617;-85
2022/07/11 08:56:01;;;;;;;8.15;2.60;;;22.30;63.30;;;;;;6102849;23;86883;-85
2022/07/11 08:58:28;;;;;;;12.43;3.17;;;22.40;63.50;;;;;;6074689;23;88579;-85
2022/07/11 09:00:54;;;;;;;6.32;2.67;;;22.40;63.30;;;;;;6101859;23;87806;-85
2022/07/11 09:03:20;;;;;;;10.15;3.45;;;22.30;63.20;;;;;;6076174;23;90240;-85
2022/07/11 09:05:46;;;;;;;12.30;3.15;;;22.30;63.10;;;;;;6074738;23;86861;-85
2022/07/11 09:08:11;;;;;;;12.77;3.33;;;22.30;63.10;;;;;;6075907;23;87993;-85
2022/07/11 09:10:39;;;;;;;15.88;3.45;;;22.30;63.20;;;;;;6101439;23;88937;-85
2022/07/11 09:13:08;;;;;;;10.75;3.13;;;22.30;63.10;;;;;;6076161;23;90349;-85
2022/07/11 09:15:45;;;;;;;7.37;3.27;;;22.30;63.50;;;;;;6077311;23;87211;-85
2022/07/11 09:18:30;;;;;;;10.68;2.83;;;22.30;63.40;;;;;;6077340;23;89775;-85
2022/07/11 09:26:34;;;;;;;10.68;2.88;;;22.30;63.20;;;;;;6105200;23;86914;-85
2022/07/11 09:29:18;;;;;;;8.38;2.58;;;22.30;63.40;;;;;;6104878;23;86667;-85
2022/07/11 09:31:47;;;;;;;8.98;2.65;;;22.30;63.50;;;;;;6077502;23;90222;-85
2022/07/11 09:34:16;;;;;;;6.70;2.70;;;22.30;63.70;;;;;;6103931;23;86887;-85
2022/07/11 09:36:47;;;;;;;10.55;2.78;;;22.30;63.50;;;;;;6075748;23;88082;-85
2022/07/11 09:39:18;;;;;;;8.82;2.50;;;22.30;63.60;;;;;;6072113;23;89242;-85
2022/07/11 09:41:46;;;;;;;8.10;2.65;;;22.30;63.40;;;;;;6077116;23;89330;-86
2022/07/11 09:44:16;;;;;;;10.55;2.97;;;22.30;63.20;;;;;;6076931;23;90799;-86
2022/07/11 09:46:45;;;;;;;8.27;2.92;;;22.40;63.50;;;;;;6076145;23;86844;-84
2022/07/11 09:49:19;;;;;;;11.35;3.17;;;22.40;63.80;;;;;;6101344;23;87221;-85
2022/07/11 09:51:45;;;;;;;8.27;2.92;;;22.40;63.90;;;;;;6075207;23;89707;-85
2022/07/11 09:54:11;;;;;;;8.38;3.00;;;22.40;63.90;;;;;;6074860;23;90135;-86
2022/07/11 09:56:39;;;;;;;8.45;3.60;;;22.40;64.10;;;;;;6075177;23;87213;-86
2022/07/11 09:59:06;;;;;;;12.65;3.72;;;22.40;64.40;;;;;;6100752;23;87165;-86
2022/07/11 10:01:32;;;;;;;13.05;3.35;;;22.40;63.90;;;;;;6074049;23;91358;-85
2022/07/11 10:03:58;;;;;;;10.27;3.97;;;22.40;63.90;;;;;;6076026;23;92410;-85
2022/07/11 10:06:24;;;;;;;11.52;3.25;;;22.40;64.00;;;;;;6102562;23;87200;-86
2022/07/11 10:08:54;;;;;;;5.35;2.70;;;22.40;64.10;;;;;;6078027;23;89361;-86
2022/07/11 10:11:20;;;;;;;4.90;2.67;;;22.40;63.90;;;;;;6077919;23;91093;-85
2022/07/11 10:13:47;;;;;;;6.07;2.58;;;22.40;64.10;;;;;;6103912;23;87004;-86
2022/07/11 10:16:36;;;;;;;6.43;2.58;;;22.40;64.30;;;;;;6078461;23;86871;-86
2022/07/11 10:21:45;;;;;;;7.05;3.08;;;22.40;64.10;;;;;;6105599;23;88872;-87
2022/07/11 10:24:30;;;;;;;4.88;2.70;;;22.40;64.00;;;;;;6105108;23;87440;-86
2022/07/11 10:27:22;;;;;;;5.20;3.08;;;22.40;64.10;;;;;;6078004;23;87925;-86
2022/07/11 10:29:52;;;;;;;6.55;2.70;;;22.40;64.00;;;;;;6095395;23;89637;-85
2022/07/11 10:32:19;;;;;;;9.23;2.58;;;22.40;64.00;;;;;;6104806;23;86812;-85
2022/07/11 10:34:46;;;;;;;9.02;3.33;;;22.40;64.00;;;;;;6105045;23;87618;-85
2022/07/11 10:37:12;;;;;;;9.13;2.85;;;22.40;63.80;;;;;;6074137;23;86925;-83
2022/07/11 10:39:39;;;;;;;6.05;2.72;;;22.50;64.00;;;;;;6103728;23;87011;-85
2022/07/11 10:42:06;;;;;;;5.47;2.58;;;22.40;63.80;;;;;;6102354;23;87946;-84
2022/07/11 10:44:48;;;;;;;7.32;3.17;;;22.50;63.80;;;;;;6077187;23;90076;-85
2022/07/11 10:47:35;;;;;;;5.13;2.85;;;22.50;64.00;;;;;;6101450;23;87160;-84
2022/07/11 10:50:13;;;;;;;4.97;2.80;;;22.40;64.10;;;;;;6076630;23;88174;-83
2022/07/11 10:52:42;;;;;;;6.78;2.83;;;22.50;65.20;;;;;;6101981;23;89024;-84
2022/07/11 10:55:36;;;;;;;6.13;2.78;;;22.50;64.10;;;;;;6075862;23;91499;-85
2022/07/11 10:58:24;;;;;;;9.07;3.58;;;22.50;63.90;;;;;;6076516;23;86966;-85
2022/07/11 11:01:08;;;;;;;12.57;4.30;;;22.50;64.30;;;;;;6076240;23;89336;-84
2022/07/11 11:03:33;;;;;;;10.45;3.33;;;22.50;64.90;;;;;;6103894;23;88083;-84
2022/07/11 11:05:59;;;;;;;8.70;3.22;;;22.50;64.70;;;;;;6076034;23;90193;-84
2022/07/11 11:08:35;;;;;;;7.43;3.08;;;22.50;64.80;;;;;;6103795;23;86940;-84
2022/07/11 11:11:07;;;;;;;7.07;2.90;;;22.50;64.50;;;;;;6102645;23;86686;-84
2022/07/11 11:13:37;;;;;;;6.60;2.90;;;22.50;64.10;;;;;;6100049;23;89541;-84
2022/07/11 11:16:18;;;;;;;8.25;2.60;;;22.50;64.00;;;;;;6076354;23;90706;-84
2022/07/11 11:18:45;;;;;;;4.15;2.53;;;22.50;64.20;;;;;;6075846;23;88231;-84
2022/07/11 11:21:15;;;;;;;4.60;2.22;;;22.50;64.00;;;;;;6075317;23;89254;-84
2022/07/11 11:23:44;;;;;;;5.80;2.63;;;22.40;64.00;;;;;;6074523;23;88850;-85
2022/07/11 11:26:18;;;;;;;7.38;2.72;;;22.50;64.10;;;;;;6076278;23;90363;-84
2022/07/11 11:28:58;;;;;;;4.88;2.30;;;22.50;64.10;;;;;;6076672;23;86998;-84
2022/07/11 11:31:26;;;;;;;3.92;1.95;;;22.50;64.00;;;;;;6102898;23;87331;-84
2022/07/11 11:33:51;;;;;;;3.65;1.95;;;22.50;65.10;;;;;;6075802;23;90695;-84
2022/07/11 11:36:19;;;;;;;5.00;2.53;;;22.50;64.10;;;;;;6076441;23;90671;-85
2022/07/11 11:38:48;;;;;;;4.95;2.42;;;22.50;63.80;;;;;;6103240;23;87027;-85
2022/07/11 11:41:25;;;;;;;5.50;1.92;;;22.50;63.70;;;;;;6077402;23;89581;-85
2022/07/11 11:43:52;;;;;;;4.53;2.50;;;22.50;64.00;;;;;;6077401;23;91481;-85
2022/07/11 11:46:17;;;;;;;8.15;2.38;;;22.50;64.20;;;;;;6077411;23;91306;-84
2022/07/11 11:48:46;;;;;;;4.25;2.28;;;22.50;64.10;;;;;;6104607;23;87005;-84
2022/07/11 11:51:18;;;;;;;4.53;2.15;;;22.50;64.10;;;;;;6103685;23;86911;-84
2022/07/11 11:53:51;;;;;;;7.22;2.60;;;22.50;64.00;;;;;;6103497;23;87924;-85
2022/07/11 11:56:30;;;;;;;4.85;2.53;;;22.50;64.20;;;;;;6104049;23;87702;-83
2022/07/11 11:58:59;;;;;;;5.20;3.30;;;22.50;63.90;;;;;;6103916;23;87084;-84
2022/07/11 12:01:27;;;;;;;7.00;3.60;;;22.50;64.00;;;;;;6104641;23;86768;-85
2022/07/11 12:04:01;;;;;;;6.50;3.40;;;22.50;63.80;;;;;;6076899;23;89499;-84
2022/07/11 12:06:28;;;;;;;8.38;4.03;;;22.50;64.00;;;;;;6077084;23;88645;-84
2022/07/11 12:09:06;;;;;;;7.20;3.90;;;22.60;64.00;;;;;;6076483;23;88148;-84
2022/07/11 12:11:36;;;;;;;6.23;4.03;;;22.50;64.10;;;;;;6101717;23;89233;-85
2022/07/11 12:14:09;;;;;;;6.75;4.32;;;22.60;64.40;;;;;;6076084;23;89322;-85
2022/07/11 12:16:41;;;;;;;7.38;4.00;;;22.50;64.50;;;;;;6104076;23;87266;-85
2022/07/11 12:19:12;;;;;;;5.70;4.80;;;22.60;65.80;;;;;;6104582;23;87236;-84
2022/07/11 12:21:38;;;;;;;7.53;4.85;;;22.60;65.20;;;;;;6076871;23;89862;-85
2022/07/11 12:24:06;;;;;;;8.68;5.68;;;22.60;65.50;;;;;;6077439;23;90352;-85
2022/07/11 12:26:34;;;;;;;7.78;5.72;;;22.60;65.10;;;;;;6078292;23;88763;-84
2022/07/11 12:29:03;;;;;;;5.80;5.15;;;22.60;65.10;;;;;;6104403;23;86923;-86
2022/07/11 12:31:45;;;;;;;7.33;5.80;;;22.60;64.80;;;;;;6103566;23;87071;-85
2022/07/11 12:34:12;;;;;;;9.10;6.10;;;22.60;64.50;;;;;;6103538;23;88632;-85
2022/07/11 12:36:37;;;;;;;6.75;5.57;;;22.60;64.80;;;;;;6076802;23;90916;-85
2022/07/11 12:39:04;;;;;;;7.53;5.72;;;22.60;64.70;;;;;;6076783;23;87127;-85
2022/07/11 12:41:30;;;;;;;8.95;5.40;;;22.60;65.10;;;;;;6077196;23;87351;-85
2022/07/11 12:46:40;;;;;;;13.60;7.55;;;22.50;64.10;;;;;;6103175;23;87215;-85
2022/07/11 12:49:11;;;;;;;15.23;8.02;;;22.60;63.90;;;;;;6101610;23;87111;-85
2022/07/11 12:51:42;;;;;;;15.20;7.28;;;22.60;64.20;;;;;;6104382;23;86762;-84
2022/07/11 12:54:28;;;;;;;10.55;7.47;;;22.60;64.20;;;;;;6077511;23;90568;-85
2022/07/11 12:56:57;;;;;;;10.98;7.80;;;22.60;64.60;;;;;;6103181;23;87979;-85
2022/07/11 12:59:24;;;;;;;10.07;7.03;;;22.60;64.20;;;;;;6074767;23;88121;-86